Time;durP1;ratioP1;P1;durP2;ratioP2;P2;SDS_P1;SDS_P2;PMS_P1;PMS_P2;Temp;Humidity;BMP_temperature;BMP_pressure;BME280_temperature;BME280_humidity;BME280_pressure;Samples;Min_cycle;Max_cycle;Signal;HPM_P1;HPM_P2
2021/12/20 00:01:19;;;;;;;0.30;0.25;;;;;;;22.40;8.50;100246.25;5071522;28;20548;-69
2021/12/20 00:03:44;;;;;;;0.30;0.30;;;;;;;22.40;8.55;100254.44;5071508;28;20028;-69
2021/12/20 00:06:09;;;;;;;0.20;0.20;;;;;;;22.43;8.43;100248.44;5071481;28;20032;-69
2021/12/20 00:08:36;;;;;;;0.20;0.20;;;;;;;22.43;8.40;100248.44;5073904;28;20052;-68
2021/12/20 00:11:02;;;;;;;0.20;0.20;;;;;;;22.41;8.55;100258.81;5091569;28;20040;-68
2021/12/20 00:13:27;;;;;;;0.20;0.20;;;;;;;22.41;8.54;100256.06;5091569;28;20043;-69
2021/12/20 00:15:53;;;;;;;0.20;0.20;;;;;;;22.40;8.62;100257.16;5091682;28;20028;-69
2021/12/20 00:18:18;;;;;;;0.32;0.32;;;;;;;22.41;8.50;100264.25;5107250;28;20061;-69
2021/12/20 00:20:43;;;;;;;0.20;0.20;;;;;;;22.39;8.41;100274.59;5113881;28;20028;-69
2021/12/20 00:23:09;;;;;;;0.30;0.30;;;;;;;22.40;8.53;100276.22;5114173;28;20068;-69
2021/12/20 00:25:34;;;;;;;0.20;0.20;;;;;;;22.40;8.59;100292.53;5113933;28;20385;-69
2021/12/20 00:28:00;;;;;;;0.30;0.30;;;;;;;22.40;8.57;100284.38;5114293;28;20031;-69
2021/12/20 00:30:26;;;;;;;0.28;0.28;;;;;;;22.41;8.52;100291.47;5114439;28;20042;-69
2021/12/20 00:32:51;;;;;;;0.30;0.30;;;;;;;22.43;8.65;100297.47;5114206;28;20458;-69
2021/12/20 00:35:19;;;;;;;0.22;0.22;;;;;;;22.40;8.68;100300.72;5114234;28;20028;-69
2021/12/20 00:40:29;;;;;;;0.30;0.30;;;;;;;22.43;8.66;100313.81;5114136;28;20042;-68
2021/12/20 00:42:59;;;;;;;0.30;0.30;;;;;;;22.40;8.70;100308.88;5113942;28;20036;-68
2021/12/20 00:45:29;;;;;;;0.30;0.30;;;;;;;22.41;8.53;100313.25;5112733;28;20027;-68
2021/12/20 00:47:55;;;;;;;0.20;0.20;;;;;;;22.39;8.66;100312.72;5113646;28;20454;-68
2021/12/20 00:50:21;;;;;;;0.30;0.30;;;;;;;22.40;8.57;100314.34;5113547;28;20026;-68
2021/12/20 00:52:47;;;;;;;0.17;0.17;;;;;;;22.40;8.50;100314.34;5113594;28;20030;-69
2021/12/20 00:55:15;;;;;;;0.35;0.35;;;;;;;22.40;8.39;100319.78;5113553;28;20020;-68
2021/12/20 00:57:41;;;;;;;0.22;0.22;;;;;;;22.41;8.40;100321.41;5112456;28;20055;-69
2021/12/20 01:00:07;;;;;;;0.20;0.20;;;;;;;22.40;8.21;100333.38;5113527;28;20023;-69
2021/12/20 01:02:32;;;;;;;0.20;0.20;;;;;;;22.41;8.08;100343.22;5113977;28;20103;-69
2021/12/20 01:04:58;;;;;;;0.30;0.28;;;;;;;22.39;8.13;100342.66;5113788;28;20050;-69
2021/12/20 01:07:23;;;;;;;0.35;0.30;;;;;;;22.39;8.10;100345.38;5113740;28;20465;-69
2021/12/20 01:09:49;;;;;;;0.25;0.25;;;;;;;22.42;7.95;100344.81;5127290;28;20066;-68
2021/12/20 01:12:18;;;;;;;0.20;0.20;;;;;;;22.38;7.90;100350.00;5134330;28;20090;-68
2021/12/20 01:14:44;;;;;;;0.20;0.20;;;;;;;22.39;7.80;100367.16;5134305;28;20031;-69
2021/12/20 01:17:09;;;;;;;0.20;0.20;;;;;;;22.38;7.76;100370.97;5134219;28;20131;-68
2021/12/20 01:19:35;;;;;;;0.28;0.28;;;;;;;22.38;7.60;100370.97;5134275;27;20492;-68
2021/12/20 01:22:01;;;;;;;0.30;0.30;;;;;;;22.38;7.55;100374.50;5138105;27;20521;-68
2021/12/20 01:24:26;;;;;;;0.13;0.13;;;;;;;22.39;7.51;100375.34;5138438;27;20482;-68
2021/12/20 01:26:51;;;;;;;0.20;0.20;;;;;;;22.38;7.55;100377.22;5138098;27;20380;-68
2021/12/20 01:29:17;;;;;;;0.20;0.20;;;;;;;22.39;7.43;100378.88;5137655;27;20465;-68
2021/12/20 01:31:42;;;;;;;0.30;0.30;;;;;;;22.39;7.56;100378.06;5137906;27;20072;-68
2021/12/20 01:34:08;;;;;;;0.20;0.20;;;;;;;22.39;7.56;100378.06;5137927;27;20038;-68
2021/12/20 01:36:33;;;;;;;0.20;0.20;;;;;;;22.40;7.55;100385.94;5127926;27;20028;-68
2021/12/20 01:38:58;;;;;;;0.20;0.20;;;;;;;22.39;7.57;100380.78;5116867;28;20024;-69
2021/12/20 01:41:24;;;;;;;0.20;0.20;;;;;;;22.40;7.64;100385.13;5117113;28;20027;-69
2021/12/20 01:43:49;;;;;;;0.20;0.20;;;;;;;22.37;7.66;100391.94;5117019;28;20031;-68
2021/12/20 01:46:14;;;;;;;0.45;0.28;;;;;;;22.36;7.61;100390.28;5117045;28;20035;-68
2021/12/20 01:48:42;;;;;;;0.30;0.30;;;;;;;22.37;7.69;100389.22;5116739;28;20533;-68
2021/12/20 01:53:34;;;;;;;0.30;0.30;;;;;;;22.36;7.73;100401.19;5116537;28;20020;-68
2021/12/20 01:55:59;;;;;;;0.30;0.30;;;;;;;22.39;7.82;100402.56;5098718;28;20046;-69
2021/12/20 01:58:26;;;;;;;0.28;0.28;;;;;;;22.36;7.77;100405.81;5116818;28;20026;-69
2021/12/20 02:03:29;;;;;;;0.30;0.30;;;;;;;22.39;7.66;100418.91;5116718;28;20035;-69
2021/12/20 02:05:58;;;;;;;0.30;0.30;;;;;;;22.35;7.55;100415.84;5116362;28;20019;-68
2021/12/20 02:08:26;;;;;;;0.28;0.28;;;;;;;22.38;7.50;100422.69;5118114;27;20027;-68
2021/12/20 02:10:56;;;;;;;0.20;0.20;;;;;;;22.36;7.49;100424.88;5137260;27;20066;-68
2021/12/20 02:13:22;;;;;;;0.20;0.20;;;;;;;22.36;7.41;100435.75;5136718;27;20035;-69
2021/12/20 02:15:47;;;;;;;0.40;0.40;;;;;;;22.38;7.56;100441.75;5137109;27;20019;-68
2021/12/20 02:18:13;;;;;;;0.30;0.30;;;;;;;22.37;7.28;100451.00;5137029;27;20358;-68
2021/12/20 02:20:38;;;;;;;0.30;0.30;;;;;;;22.37;7.39;100446.38;5136633;27;20480;-69
2021/12/20 02:23:04;;;;;;;0.20;0.20;;;;;;;22.38;7.33;100441.75;5137028;27;20034;-69
2021/12/20 02:25:30;;;;;;;0.25;0.25;;;;;;;22.38;7.34;100439.03;5137548;27;20023;-68
2021/12/20 02:27:55;;;;;;;0.20;0.20;;;;;;;22.35;7.36;100445.00;5138389;27;20029;-69
2021/12/20 02:38:30;;;;;;;0.47;0.20;;;;;;;22.37;7.37;100451.00;5121253;27;20088;-69
2021/12/20 02:41:01;;;;;;;0.20;0.20;;;;;;;22.36;7.38;100449.38;5136661;27;20027;-68
2021/12/20 02:43:28;;;;;;;0.20;0.20;;;;;;;22.37;7.19;100451.84;5136834;27;20034;-69
2021/12/20 02:45:58;;;;;;;0.20;0.20;;;;;;;22.37;7.35;100449.09;5136259;27;20027;-69
2021/12/20 02:48:23;;;;;;;0.20;0.20;;;;;;;22.38;7.34;100458.09;5136210;27;20453;-69
2021/12/20 02:50:52;;;;;;;0.40;0.40;;;;;;;22.37;7.28;100470.06;5136458;27;20015;-69
2021/12/20 02:53:17;;;;;;;0.30;0.30;;;;;;;22.37;7.21;100479.06;5118532;27;20028;-68
2021/12/20 02:55:43;;;;;;;0.35;0.30;;;;;;;22.37;7.23;100481.78;5136102;27;20538;-69
2021/12/20 02:58:08;;;;;;;0.30;0.30;;;;;;;22.36;7.21;100479.31;5136362;27;20019;-68
2021/12/20 03:00:34;;;;;;;0.30;0.30;;;;;;;22.35;7.17;100489.38;5135863;27;20039;-69
2021/12/20 03:02:59;;;;;;;0.20;0.20;;;;;;;22.35;7.23;100485.84;5136194;27;20054;-68
2021/12/20 03:05:24;;;;;;;0.32;0.30;;;;;;;22.36;7.13;100490.22;5135783;27;20030;-69
2021/12/20 03:07:53;;;;;;;0.30;0.30;;;;;;;22.35;7.16;100499.44;5135990;27;20056;-69
2021/12/20 03:10:21;;;;;;;0.30;0.30;;;;;;;22.37;7.08;100494.56;5135574;27;20043;-69
2021/12/20 03:12:48;;;;;;;0.28;0.28;;;;;;;22.37;7.04;100494.56;5135857;27;20058;-69
2021/12/20 03:15:19;;;;;;;0.22;0.22;;;;;;;22.36;7.01;100504.63;5136936;27;20050;-68
2021/12/20 03:17:44;;;;;;;0.30;0.30;;;;;;;22.36;6.96;100503.81;5136143;27;20472;-69
2021/12/20 03:20:10;;;;;;;0.25;0.25;;;;;;;22.35;7.02;100504.91;5135683;27;20015;-69
2021/12/20 03:22:36;;;;;;;0.25;0.25;;;;;;;22.35;7.07;100513.88;5135533;27;20469;-69
2021/12/20 03:25:01;;;;;;;0.30;0.30;;;;;;;22.35;7.04;100518.50;5135324;27;20031;-68
2021/12/20 03:27:27;;;;;;;0.30;0.30;;;;;;;22.37;7.01;100527.22;5135411;27;20019;-68
2021/12/20 03:29:52;;;;;;;0.20;0.20;;;;;;;22.36;6.97;100525.59;5135455;27;20023;-68
2021/12/20 03:32:18;;;;;;;0.30;0.30;;;;;;;22.35;7.10;100529.41;5135690;27;20019;-68
2021/12/20 03:34:43;;;;;;;0.20;0.20;;;;;;;22.37;6.90;100527.22;5135247;27;20023;-68
2021/12/20 03:37:08;;;;;;;0.30;0.30;;;;;;;22.35;6.97;100529.41;5122068;27;20023;-69
2021/12/20 03:39:34;;;;;;;0.30;0.30;;;;;;;22.35;6.97;100530.22;5114620;28;20047;-69
2021/12/20 03:42:00;;;;;;;0.30;0.30;;;;;;;22.36;7.00;100536.50;5114549;28;20023;-69
2021/12/20 03:44:25;;;;;;;0.30;0.30;;;;;;;22.36;7.04;100531.06;5114933;28;20035;-69
2021/12/20 03:46:51;;;;;;;0.20;0.20;;;;;;;22.36;7.01;100539.22;5114843;28;20023;-69
2021/12/20 03:49:16;;;;;;;0.20;0.20;;;;;;;22.35;7.04;100545.72;5114423;28;20027;-68
2021/12/20 03:51:42;;;;;;;0.20;0.20;;;;;;;22.36;6.99;100544.66;5114646;28;20019;-68
2021/12/20 03:54:07;;;;;;;0.38;0.30;;;;;;;22.34;7.03;100549.56;5114705;28;20026;-68
2021/12/20 03:56:33;;;;;;;0.28;0.28;;;;;;;22.34;6.96;100552.28;5114623;28;20519;-69
2021/12/20 03:58:58;;;;;;;0.20;0.20;;;;;;;22.36;6.99;100550.09;5114716;28;20122;-69
2021/12/20 04:01:25;;;;;;;0.25;0.25;;;;;;;22.38;6.83;100545.22;5114616;28;20023;-68
2021/12/20 04:03:50;;;;;;;0.30;0.30;;;;;;;22.39;6.88;100555.03;5114780;28;20015;-68
2021/12/20 04:06:16;;;;;;;0.20;0.20;;;;;;;22.40;6.90;100560.19;5114376;28;20024;-68
2021/12/20 04:08:41;;;;;;;0.30;0.30;;;;;;;22.43;6.94;100561.59;5118181;27;20047;-68
2021/12/20 04:11:07;;;;;;;0.28;0.20;;;;;;;22.46;6.83;100559.16;5134847;27;20041;-68
2021/12/20 04:13:33;;;;;;;0.28;0.28;;;;;;;22.46;6.93;100555.63;5134622;27;20046;-68
2021/12/20 04:15:59;;;;;;;0.20;0.20;;;;;;;22.49;6.99;100569.53;5134737;27;20026;-68
2021/12/20 04:18:25;;;;;;;0.20;0.20;;;;;;;22.53;6.89;100569.81;5134322;27;20026;-68
2021/12/20 04:20:50;;;;;;;0.20;0.20;;;;;;;22.54;6.98;100576.88;5134572;27;20048;-68
2021/12/20 04:23:16;;;;;;;0.38;0.32;;;;;;;22.58;6.96;100574.50;5134203;27;20027;-68
2021/12/20 04:25:41;;;;;;;0.30;0.30;;;;;;;22.60;7.00;100575.84;5134370;27;20051;-68
2021/12/20 04:28:07;;;;;;;0.20;0.20;;;;;;;22.61;7.11;100577.50;5134413;27;20027;-68
2021/12/20 04:30:32;;;;;;;0.30;0.30;;;;;;;22.64;7.08;100582.41;5134112;27;20031;-68
2021/12/20 04:32:58;;;;;;;0.30;0.30;;;;;;;22.67;7.03;100581.88;5134266;27;20092;-68
2021/12/20 04:35:23;;;;;;;0.28;0.28;;;;;;;22.71;7.04;100587.63;5116079;28;20068;-67
2021/12/20 04:37:50;;;;;;;0.10;0.10;;;;;;;22.73;7.13;100587.34;5134000;28;20019;-67
2021/12/20 04:40:21;;;;;;;0.30;0.30;;;;;;;22.74;7.04;100597.19;5134794;28;20050;-68
2021/12/20 04:42:53;;;;;;;0.30;0.30;;;;;;;22.72;7.14;100593.91;5134323;28;20027;-68
2021/12/20 04:45:20;;;;;;;0.30;0.30;;;;;;;22.79;7.04;100600.75;5135786;28;20484;-68
2021/12/20 04:47:45;;;;;;;0.30;0.30;;;;;;;22.82;6.92;100604.88;5135386;28;20381;-68
2021/12/20 04:50:12;;;;;;;0.22;0.22;;;;;;;22.84;6.79;100602.69;5134653;28;20031;-68
2021/12/20 04:52:37;;;;;;;0.22;0.22;;;;;;;22.63;6.79;100608.00;5134331;28;20020;-68
2021/12/20 04:55:04;;;;;;;0.30;0.30;;;;;;;22.76;6.79;100611.34;5134657;27;20030;-68
2021/12/20 04:57:30;;;;;;;0.30;0.30;;;;;;;22.85;6.78;100621.50;5138145;27;20015;-68
2021/12/20 04:59:55;;;;;;;0.20;0.20;;;;;;;22.89;6.69;100621.78;5138819;27;20037;-69
2021/12/20 05:02:20;;;;;;;0.30;0.30;;;;;;;22.92;6.76;100623.16;5138037;27;20095;-68
2021/12/20 05:04:46;;;;;;;0.30;0.30;;;;;;;22.93;6.78;100616.63;5138000;27;20034;-68
2021/12/20 05:07:11;;;;;;;0.20;0.20;;;;;;;22.96;6.92;100627.81;5138451;27;20027;-68
2021/12/20 05:09:39;;;;;;;0.30;0.30;;;;;;;23.01;6.97;100629.75;5137945;27;20053;-68
2021/12/20 05:12:14;;;;;;;0.30;0.30;;;;;;;22.89;6.71;100635.41;5119894;27;20043;-69
2021/12/20 05:14:41;;;;;;;0.20;0.20;;;;;;;23.00;6.72;100637.09;5138054;27;20024;-68
2021/12/20 05:17:07;;;;;;;0.20;0.20;;;;;;;23.04;6.77;100640.13;5120181;27;20050;-68
2021/12/20 05:19:33;;;;;;;0.30;0.30;;;;;;;23.05;6.68;100639.88;5138018;27;20436;-68
2021/12/20 05:21:59;;;;;;;0.30;0.30;;;;;;;23.08;6.70;100640.44;5138176;27;20047;-68
2021/12/20 05:24:24;;;;;;;0.30;0.30;;;;;;;23.11;6.93;100659.00;5137868;27;20023;-67
2021/12/20 05:26:49;;;;;;;0.22;0.22;;;;;;;23.12;6.67;100652.47;5119436;27;20019;-68
2021/12/20 05:29:15;;;;;;;0.20;0.20;;;;;;;23.15;6.61;100651.94;5137746;27;20484;-68
2021/12/20 05:31:40;;;;;;;0.20;0.20;;;;;;;23.16;6.48;100648.09;5137419;27;20023;-68
2021/12/20 05:34:06;;;;;;;0.20;0.20;;;;;;;23.19;6.47;100664.75;5138082;27;20080;-68
2021/12/20 05:36:31;;;;;;;0.20;0.20;;;;;;;23.22;6.89;100663.41;5137415;27;20321;-68
2021/12/20 05:38:57;;;;;;;0.28;0.28;;;;;;;23.23;6.88;100670.50;5138538;27;20030;-68
2021/12/20 05:41:22;;;;;;;0.22;0.22;;;;;;;23.24;6.80;100677.59;5140948;27;20023;-67
2021/12/20 05:43:48;;;;;;;0.20;0.20;;;;;;;23.24;6.50;100672.16;5137415;27;20023;-68
2021/12/20 05:46:14;;;;;;;0.38;0.38;;;;;;;23.24;6.57;100683.88;5137449;27;20023;-68
2021/12/20 05:48:39;;;;;;;0.35;0.30;;;;;;;23.25;6.66;100677.34;5137059;27;20470;-68
2021/12/20 05:51:04;;;;;;;0.38;0.38;;;;;;;23.24;6.53;100683.88;5136955;27;20034;-69
2021/12/20 05:53:30;;;;;;;0.38;0.30;;;;;;;23.28;6.63;100672.44;5137385;27;20023;-69
2021/12/20 05:55:55;;;;;;;0.30;0.30;;;;;;;23.25;6.72;100681.97;5137089;27;20019;-69
2021/12/20 05:58:21;;;;;;;0.38;0.30;;;;;;;23.33;6.32;100697.81;5136983;27;20102;-68
2021/12/20 06:00:46;;;;;;;0.30;0.30;;;;;;;23.32;6.34;100698.91;5136597;27;20480;-68
2021/12/20 06:03:11;;;;;;;0.20;0.20;;;;;;;23.31;6.76;100705.44;5136679;27;20104;-69
2021/12/20 06:05:41;;;;;;;0.30;0.30;;;;;;;23.37;6.40;100707.13;5137575;27;20076;-68
2021/12/20 06:08:07;;;;;;;0.32;0.30;;;;;;;23.38;6.55;100707.94;5135255;27;20472;-68
2021/12/20 06:10:32;;;;;;;0.80;0.30;;;;;;;23.39;6.52;100718.59;5098419;28;20040;-69
2021/12/20 06:12:58;;;;;;;0.30;0.30;;;;;;;23.43;6.34;100722.41;5116675;28;20038;-69
2021/12/20 06:15:23;;;;;;;0.40;0.40;;;;;;;23.40;6.46;100714.78;5116460;28;20023;-69
2021/12/20 06:17:48;;;;;;;0.32;0.32;;;;;;;23.48;6.39;100726.25;5116279;28;20481;-69
2021/12/20 06:20:14;;;;;;;0.30;0.30;;;;;;;23.44;6.32;100732.25;5116117;28;20023;-69
2021/12/20 06:22:40;;;;;;;0.30;0.30;;;;;;;23.46;6.26;100731.97;5116966;28;20035;-70
2021/12/20 06:25:06;;;;;;;0.30;0.30;;;;;;;23.24;6.49;100732.13;5101393;28;20389;-69
2021/12/20 06:27:32;;;;;;;0.30;0.30;;;;;;;23.42;6.38;100742.59;5099296;28;20059;-69
2021/12/20 06:29:57;;;;;;;0.40;0.40;;;;;;;23.48;6.21;100748.09;5098548;28;20046;-69
2021/12/20 06:32:22;;;;;;;0.30;0.30;;;;;;;23.50;6.22;100740.44;5117688;28;20015;-69
2021/12/20 06:34:48;;;;;;;0.40;0.40;;;;;;;23.50;6.38;100745.91;5116883;28;20023;-69
2021/12/20 06:37:13;;;;;;;0.30;0.30;;;;;;;23.51;6.44;100742.06;5117211;28;20027;-69
2021/12/20 06:39:39;;;;;;;1.17;0.40;;;;;;;23.36;6.10;100757.28;5116534;28;20023;-69
2021/12/20 06:42:04;;;;;;;1.17;0.40;;;;;;;23.52;6.20;100765.56;5116295;28;20461;-69
2021/12/20 06:44:30;;;;;;;0.30;0.30;;;;;;;23.56;6.38;100772.09;5115801;28;20068;-68
2021/12/20 06:46:55;;;;;;;0.30;0.30;;;;;;;23.55;6.33;100781.41;5115396;28;20343;-68
2021/12/20 06:49:21;;;;;;;0.40;0.32;;;;;;;23.58;6.56;100764.50;5115339;28;20030;-68
2021/12/20 06:51:47;;;;;;;0.95;0.60;;;;;;;23.57;6.43;100768.31;5114909;28;20045;-68
2021/12/20 06:54:14;;;;;;;1.92;1.10;;;;;;;23.60;6.58;100778.69;5114943;28;20020;-69
2021/12/20 06:56:39;;;;;;;2.20;0.90;;;;;;;23.64;6.54;100777.06;5097235;28;20024;-68
2021/12/20 06:59:05;;;;;;;3.80;1.50;;;;;;;23.62;6.33;100782.78;5114672;28;20155;-69
2021/12/20 07:01:30;;;;;;;3.47;1.60;;;;;;;23.66;6.50;100787.72;5115233;28;20065;-69
2021/12/20 07:03:56;;;;;;;4.43;2.05;;;;;;;23.66;6.21;100791.25;5115215;28;20024;-69
2021/12/20 07:06:21;;;;;;;5.30;2.20;;;;;;;23.66;6.33;100796.72;5114860;28;20431;-68
2021/12/20 07:08:47;;;;;;;9.25;3.42;;;;;;;23.71;6.44;100807.66;5120019;27;20176;-68
2021/12/20 07:11:12;;;;;;;9.90;3.28;;;;;;;23.72;6.40;100816.69;5135924;27;20042;-69
2021/12/20 07:13:38;;;;;;;14.30;3.63;;;;;;;23.70;6.43;100819.69;5135253;27;20492;-67
2021/12/20 07:16:04;;;;;;;9.05;3.20;;;;;;;23.68;6.83;100821.84;5116983;27;20037;-68
2021/12/20 07:18:29;;;;;;;4.65;1.98;;;;;;;23.56;7.06;100821.22;5135212;27;20023;-69
2021/12/20 07:20:55;;;;;;;6.32;2.10;;;;;;;23.64;6.60;100831.63;5135041;27;20381;-69
2021/12/20 07:23:21;;;;;;;5.25;1.80;;;;;;;23.69;6.72;100834.38;5135105;27;20031;-69
2021/12/20 07:25:47;;;;;;;2.25;1.25;;;;;;;23.64;6.53;100834.38;5135792;27;20027;-69
2021/12/20 07:28:13;;;;;;;3.88;1.40;;;;;;;23.72;6.35;100831.13;5135995;27;20050;-69
2021/12/20 07:30:38;;;;;;;2.97;1.00;;;;;;;23.59;6.36;100837.91;5117291;27;20080;-70
2021/12/20 07:33:05;;;;;;;2.88;1.25;;;;;;;23.52;6.63;100834.56;5135230;27;20135;-69
2021/12/20 07:35:31;;;;;;;1.40;0.93;;;;;;;23.63;6.80;100849.91;5135469;27;20035;-68
2021/12/20 07:37:58;;;;;;;3.17;0.70;;;;;;;23.59;6.47;100837.06;5151347;27;20031;-69
2021/12/20 07:40:24;;;;;;;3.15;0.70;;;;;;;23.65;6.76;100840.66;5155723;27;20038;-69
2021/12/20 07:42:49;;;;;;;1.63;0.80;;;;;;;23.70;6.65;100846.97;5155832;27;20015;-69
2021/12/20 07:45:14;;;;;;;1.13;0.70;;;;;;;23.58;6.60;100849.06;5155609;27;20043;-69
2021/12/20 07:47:40;;;;;;;1.15;0.68;;;;;;;23.75;6.62;100846.16;5155357;27;20372;-68
2021/12/20 07:50:06;;;;;;;0.57;0.52;;;;;;;23.66;6.93;100859.47;5154985;27;20057;-68
2021/12/20 07:52:32;;;;;;;0.73;0.60;;;;;;;23.74;6.88;100849.97;5136834;27;20478;-69
2021/12/20 07:54:59;;;;;;;0.60;0.57;;;;;;;23.86;6.67;100852.53;5154682;27;20031;-69
2021/12/20 07:57:24;;;;;;;1.20;0.63;;;;;;;23.77;6.69;100865.84;5155085;27;20063;-68
2021/12/20 07:59:50;;;;;;;0.57;0.57;;;;;;;23.84;6.61;100871.91;5136890;27;20030;-69
2021/12/20 08:02:16;;;;;;;0.63;0.60;;;;;;;23.76;6.94;100875.91;5155764;27;20023;-69
2021/12/20 08:04:47;;;;;;;0.70;0.60;;;;;;;23.77;6.59;100877.56;5137268;27;20054;-69
2021/12/20 08:07:12;;;;;;;0.80;0.55;;;;;;;23.77;6.96;100880.28;5155810;27;20139;-69
2021/12/20 08:09:38;;;;;;;1.10;0.70;;;;;;;23.82;6.45;100865.91;5155081;27;20105;-69
2021/12/20 08:12:04;;;;;;;9.57;1.00;;;;;;;23.84;6.94;100884.75;5155267;27;20436;-69
2021/12/20 08:14:30;;;;;;;1.20;0.40;;;;;;;23.94;6.69;100882.03;5154749;27;20043;-68
2021/12/20 08:16:55;;;;;;;1.40;0.50;;;;;;;23.88;6.38;100894.03;5154890;27;20116;-68
2021/12/20 08:19:21;;;;;;;3.25;0.50;;;;;;;23.97;6.83;100892.44;5154823;27;20388;-67
2021/12/20 08:21:46;;;;;;;0.55;0.47;;;;;;;23.93;6.88;100896.78;5155169;27;20047;-68
2021/12/20 08:24:11;;;;;;;0.70;0.68;;;;;;;23.91;6.71;100893.50;5154813;27;20031;-68
2021/12/20 08:26:37;;;;;;;0.82;0.60;;;;;;;24.07;6.49;100897.13;5138063;27;20030;-68
2021/12/20 08:29:02;;;;;;;0.63;0.50;;;;;;;23.93;6.64;100896.78;5154577;27;20049;-68
2021/12/20 08:31:28;;;;;;;1.08;0.50;;;;;;;23.94;6.60;100895.69;5153835;27;20019;-68
2021/12/20 08:33:54;;;;;;;0.40;0.40;;;;;;;24.01;6.72;100893.56;5154647;27;20023;-70
2021/12/20 08:36:20;;;;;;;0.60;0.60;;;;;;;24.05;6.40;100885.66;5153751;27;20023;-69
2021/12/20 08:38:45;;;;;;;0.40;0.40;;;;;;;24.04;6.44;100889.47;5133642;28;20380;-67
2021/12/20 08:41:13;;;;;;;1.20;0.32;;;;;;;24.03;6.11;100890.56;5133908;28;20043;-68
2021/12/20 08:43:39;;;;;;;1.50;0.68;;;;;;;23.97;6.25;100882.34;5134355;28;20019;-68
2021/12/20 08:46:04;;;;;;;1.63;0.90;;;;;;;24.04;6.41;100884.00;5150241;27;20023;-69
2021/12/20 08:48:30;;;;;;;1.80;1.08;;;;;;;24.05;6.59;100891.13;5133923;28;20069;-68
2021/12/20 08:50:57;;;;;;;1.73;0.93;;;;;;;24.03;6.37;100879.66;5134150;28;20027;-69
2021/12/20 08:53:22;;;;;;;1.13;0.75;;;;;;;24.03;6.30;100887.84;5134256;28;20023;-69
2021/12/20 08:55:47;;;;;;;2.00;0.65;;;;;;;24.13;6.23;100896.88;5134090;28;20031;-68
2021/12/20 08:58:13;;;;;;;1.08;0.70;;;;;;;24.12;6.12;100895.22;5116146;28;20412;-68
2021/12/20 09:00:38;;;;;;;0.90;0.70;;;;;;;24.10;6.17;100891.94;5135226;28;20473;-69
2021/12/20 09:03:06;;;;;;;1.23;0.80;;;;;;;24.08;6.35;100898.78;5135600;28;20049;-68
2021/12/20 09:05:33;;;;;;;3.60;1.70;;;;;;;24.12;6.23;100900.69;5117059;28;20045;-68
2021/12/20 09:08:01;;;;;;;8.18;3.38;;;;;;;24.00;6.17;100897.38;5133853;28;20034;-68
2021/12/20 09:10:26;;;;;;;9.85;4.05;;;;;;;24.06;6.24;100895.47;5096292;28;20054;-67
2021/12/20 09:12:52;;;;;;;5.85;2.97;;;;;;;24.10;6.08;100891.16;5113313;28;20036;-68
2021/12/20 09:15:18;;;;;;;5.70;2.50;;;;;;;24.13;5.94;100887.88;5113465;28;20024;-68
2021/12/20 09:17:44;;;;;;;3.97;2.17;;;;;;;24.10;6.32;100894.69;5113878;28;20074;-68
2021/12/20 09:20:11;;;;;;;5.68;2.10;;;;;;;24.17;5.75;100891.72;5096299;28;20079;-68
2021/12/20 09:22:49;;;;;;;3.38;1.70;;;;;;;24.05;5.83;100891.13;5116355;28;20049;-69
2021/12/20 09:25:14;;;;;;;3.17;1.35;;;;;;;24.13;6.17;100893.34;5113782;28;20523;-69
2021/12/20 09:27:39;;;;;;;3.70;1.30;;;;;;;24.11;5.78;100893.59;5112761;28;20039;-68
2021/12/20 09:30:05;;;;;;;2.58;1.33;;;;;;;24.19;5.73;100901.28;5114351;28;20027;-69
2021/12/20 09:32:31;;;;;;;1.42;0.95;;;;;;;24.21;5.61;100909.19;5116233;28;20046;-68
2021/12/20 09:34:56;;;;;;;2.83;1.10;;;;;;;24.13;5.84;100907.81;5114566;28;20028;-69
2021/12/20 09:37:23;;;;;;;2.03;1.13;;;;;;;24.16;5.67;100910.03;5112834;28;20434;-68
2021/12/20 09:39:53;;;;;;;1.05;0.80;;;;;;;24.17;5.64;100908.91;5112785;28;20027;-68
2021/12/20 09:42:18;;;;;;;1.40;0.80;;;;;;;24.13;5.91;100913.28;5115181;28;20028;-68
2021/12/20 09:44:44;;;;;;;2.03;0.93;;;;;;;24.18;5.86;100910.56;5098543;28;20057;-68
2021/12/20 09:47:09;;;;;;;1.67;0.88;;;;;;;24.13;5.88;100916.00;5117099;28;20015;-68
2021/12/20 09:49:35;;;;;;;1.40;0.88;;;;;;;24.15;5.84;100907.56;5117006;28;20032;-68
2021/12/20 09:52:00;;;;;;;2.60;0.68;;;;;;;24.23;5.62;100900.75;5116361;28;20065;-68
2021/12/20 09:54:27;;;;;;;1.15;0.50;;;;;;;24.14;5.71;100906.72;5115687;28;20093;-69
2021/12/20 09:56:53;;;;;;;0.98;0.70;;;;;;;24.31;5.89;100909.25;5115977;28;20106;-68
2021/12/20 09:59:19;;;;;;;0.57;0.57;;;;;;;24.24;6.08;100913.31;5116158;28;20081;-68
2021/12/20 10:01:45;;;;;;;0.68;0.50;;;;;;;24.23;5.97;100914.41;5115955;28;20023;-68
2021/12/20 10:04:10;;;;;;;0.40;0.40;;;;;;;24.30;6.01;100901.31;5097774;28;20490;-68
2021/12/20 10:06:36;;;;;;;2.55;0.70;;;;;;;24.26;5.93;100909.22;5116078;28;20425;-68
2021/12/20 10:09:10;;;;;;;1.05;0.50;;;;;;;24.25;6.12;100909.47;5120593;27;20118;-68
2021/12/20 10:11:37;;;;;;;0.82;0.50;;;;;;;24.24;6.21;100913.31;5136718;27;20031;-68
2021/12/20 10:14:10;;;;;;;0.75;0.50;;;;;;;24.23;5.97;100911.66;5136678;27;20027;-68
2021/12/20 10:16:36;;;;;;;0.40;0.40;;;;;;;24.28;5.99;100901.56;5136101;27;20056;-68
2021/12/20 10:19:03;;;;;;;0.50;0.50;;;;;;;24.27;6.03;100904.59;5136166;27;20016;-69
2021/12/20 10:21:39;;;;;;;4.13;0.80;;;;;;;24.29;6.09;100900.50;5136500;27;20077;-69
2021/12/20 10:24:05;;;;;;;2.25;1.27;;;;;;;24.29;6.15;100881.38;5136170;27;20034;-68
2021/12/20 10:26:38;;;;;;;4.03;2.22;;;;;;;24.28;6.34;100887.91;5136188;27;20031;-68
2021/12/20 10:29:04;;;;;;;6.00;2.25;;;;;;;24.27;6.21;100890.94;5119248;27;20038;-68
2021/12/20 10:31:30;;;;;;;4.25;2.47;;;;;;;24.30;6.15;100885.78;5100317;27;20510;-69
2021/12/20 10:33:59;;;;;;;2.85;1.40;;;;;;;24.33;5.99;100884.41;5118323;27;20027;-68
2021/12/20 10:36:24;;;;;;;3.95;1.58;;;;;;;24.31;6.31;100889.31;5139216;27;20429;-68
2021/12/20 10:39:00;;;;;;;4.80;1.63;;;;;;;24.38;6.15;100895.34;5140173;27;20045;-69
2021/12/20 10:41:35;;;;;;;2.95;1.58;;;;;;;24.38;6.30;100904.34;5139847;27;20043;-70
2021/12/20 10:44:25;;;;;;;2.97;1.33;;;;;;;24.33;5.92;100900.78;5120612;27;20026;-69
2021/12/20 10:46:52;;;;;;;5.78;1.90;;;;;;;24.41;6.25;100897.53;5136400;27;20031;-68
2021/12/20 10:49:18;;;;;;;6.78;1.98;;;;;;;24.31;6.14;100892.03;5136678;27;20046;-69
2021/12/20 10:51:51;;;;;;;3.58;1.80;;;;;;;24.42;6.05;100887.44;5136882;27;20481;-69
2021/12/20 10:54:19;;;;;;;4.47;2.00;;;;;;;24.41;6.39;100886.63;5136145;27;20111;-68
2021/12/20 10:56:50;;;;;;;2.53;1.27;;;;;;;24.42;6.07;100893.72;5136347;27;20055;-69
2021/12/20 10:59:16;;;;;;;2.20;1.08;;;;;;;24.36;6.17;100886.59;5135886;27;20050;-69
2021/12/20 11:04:20;;;;;;;2.50;1.10;;;;;;;24.43;6.00;100889.91;5117823;27;20384;-69
2021/12/20 11:09:20;;;;;;;1.80;0.90;;;;;;;24.42;5.91;100898.34;5110565;28;20046;-68
2021/12/20 11:11:49;;;;;;;1.27;0.80;;;;;;;24.40;6.17;100884.97;5114287;28;20031;-68
2021/12/20 11:14:15;;;;;;;2.67;0.60;;;;;;;24.38;5.94;100890.69;5114492;28;20035;-68
2021/12/20 11:16:45;;;;;;;2.00;0.70;;;;;;;24.48;5.61;100879.00;5114584;28;20016;-67
2021/12/20 11:19:33;;;;;;;0.70;0.70;;;;;;;24.40;5.81;100887.69;5113962;28;20046;-68
2021/12/20 11:22:00;;;;;;;178.93;56.13;;;;;;;24.47;5.71;100882.78;5114011;28;20414;-69
2021/12/20 11:24:50;;;;;;;19.25;8.07;;;;;;;24.53;5.91;100894.59;5115245;28;20064;-70
2021/12/20 11:27:17;;;;;;;133.77;48.42;;;;;;;24.48;5.92;100886.38;5115383;28;20034;-69
2021/12/20 11:29:43;;;;;;;66.55;28.25;;;;;;;24.51;6.13;100873.00;5096249;28;20028;-69
2021/12/20 11:32:11;;;;;;;40.15;15.95;;;;;;;24.49;5.78;100877.91;5115130;28;20038;-69
2021/12/20 11:34:38;;;;;;;32.08;12.50;;;;;;;24.50;5.85;100884.19;5114350;28;20038;-68
2021/12/20 11:37:04;;;;;;;19.27;8.98;;;;;;;24.46;6.32;100883.91;5095858;28;20043;-67
2021/12/20 11:39:30;;;;;;;19.00;8.27;;;;;;;24.56;5.77;100885.88;5095860;28;20085;-68
2021/12/20 11:41:55;;;;;;;11.45;4.43;;;;;;;24.64;5.99;100884.53;5114636;28;20035;-67
2021/12/20 11:44:23;;;;;;;7.38;3.38;;;;;;;24.71;6.06;100883.16;5114836;28;20028;-67
2021/12/20 11:47:08;;;;;;;6.68;2.42;;;;;;;24.76;5.97;100871.44;5114534;28;20038;-68
2021/12/20 11:49:34;;;;;;;4.38;2.00;;;;;;;24.71;5.77;100868.69;5096322;28;20140;-68
2021/12/20 11:52:16;;;;;;;5.05;1.70;;;;;;;24.72;5.93;100870.34;5114075;28;20458;-67